createdAt,value
2022-10-14T00:00:41.276Z,72.09
2022-10-14T00:03:07.964Z,72.33
2022-10-14T00:05:34.756Z,72.58
2022-10-14T00:08:01.473Z,72.69
2022-10-14T00:10:28.302Z,72.66
2022-10-14T00:12:55.128Z,72.73
2022-10-14T00:15:21.989Z,72.76
2022-10-14T00:17:48.731Z,72.85
2022-10-14T00:20:15.327Z,73.01
2022-10-14T00:22:42.008Z,72.87
2022-10-14T00:25:08.887Z,73.08
2022-10-14T00:27:38.484Z,73.00
2022-10-14T00:30:09.739Z,72.67
2022-10-14T00:32:36.381Z,73.03
2022-10-14T00:35:03.368Z,73.17
2022-10-14T00:37:30.138Z,73.37
2022-10-14T00:39:57.237Z,73.31
2022-10-14T00:42:25.027Z,73.25
2022-10-14T00:45:05.688Z,73.40
2022-10-14T00:47:35.759Z,73.52
2022-10-14T00:50:03.956Z,73.13
2022-10-14T00:52:31.065Z,73.01
2022-10-14T00:55:05.166Z,72.96
2022-10-14T00:57:32.131Z,73.55
2022-10-14T01:00:05.379Z,73.62
2022-10-14T01:02:32.214Z,73.43
2022-10-14T01:05:01.081Z,73.50
2022-10-14T01:08:02.842Z,73.24
2022-10-14T01:11:00.452Z,73.14
2022-10-14T01:13:36.985Z,73.41
2022-10-14T01:16:21.037Z,73.33
2022-10-14T01:18:57.707Z,73.47
2022-10-14T01:21:36.616Z,73.22
2022-10-14T01:24:22.919Z,73.45
2022-10-14T01:26:55.985Z,73.40
2022-10-14T01:29:45.859Z,73.25
2022-10-14T01:32:50.209Z,73.52
2022-10-14T01:35:39.730Z,73.94
2022-10-14T01:38:47.915Z,73.90
2022-10-14T01:41:34.876Z,74.24
2022-10-14T01:44:11.381Z,74.23
2022-10-14T01:46:43.491Z,74.14
2022-10-14T01:49:19.043Z,74.39
2022-10-14T01:51:49.285Z,74.19
2022-10-14T01:54:20.871Z,74.45
2022-10-14T01:56:49.485Z,74.18
2022-10-14T01:59:20.556Z,74.23
2022-10-14T02:01:47.372Z,74.45
2022-10-14T02:04:20.825Z,74.35
2022-10-14T02:07:03.325Z,74.44
2022-10-14T02:09:43.061Z,74.35
2022-10-14T02:12:28.136Z,74.12
2022-10-14T02:15:09.280Z,74.17
2022-10-14T02:17:41.940Z,74.44
2022-10-14T02:20:29.046Z,74.25
2022-10-14T02:23:21.248Z,74.19
2022-10-14T02:25:50.389Z,74.18
2022-10-14T02:28:21.671Z,74.52
2022-10-14T02:30:59.029Z,74.40
2022-10-14T02:33:30.792Z,74.66
2022-10-14T02:35:59.497Z,75.11
2022-10-14T02:38:26.604Z,75.24
2022-10-14T02:40:53.828Z,75.08
2022-10-14T02:43:20.598Z,74.92
2022-10-14T02:45:47.258Z,74.89
2022-10-14T02:48:13.913Z,74.97
2022-10-14T02:50:41.779Z,75.58
2022-10-14T02:53:08.977Z,75.43
2022-10-14T02:55:36.125Z,75.35
2022-10-14T02:58:02.746Z,75.38
2022-10-14T03:00:29.473Z,75.55
2022-10-14T03:02:56.694Z,75.90
2022-10-14T03:05:25.351Z,75.88
2022-10-14T03:07:53.592Z,75.67
2022-10-14T03:10:21.425Z,75.57
2022-10-14T03:12:48.387Z,75.62
2022-10-14T03:15:24.280Z,75.47
2022-10-14T03:17:52.242Z,75.41
2022-10-14T03:20:23.557Z,75.77
2022-10-14T03:22:53.937Z,75.65
2022-10-14T03:25:20.586Z,75.59
2022-10-14T03:27:58.854Z,75.70
2022-10-14T03:30:37.324Z,75.57
2022-10-14T03:33:14.761Z,75.42
2022-10-14T03:35:48.851Z,75.45
2022-10-14T03:38:19.294Z,75.54
2022-10-14T03:40:47.540Z,75.40
2022-10-14T03:43:14.736Z,75.44
2022-10-14T03:45:49.229Z,75.42
2022-10-14T03:48:18.913Z,75.39
2022-10-14T03:50:47.400Z,75.32
2022-10-14T03:53:14.353Z,75.41
2022-10-14T03:55:42.662Z,75.50
2022-10-14T03:58:11.586Z,75.72
2022-10-14T04:00:44.833Z,75.56
2022-10-14T04:03:28.050Z,75.78
2022-10-14T04:05:55.712Z,75.92
2022-10-14T04:08:24.969Z,76.10
2022-10-14T04:10:59.070Z,75.87
2022-10-14T04:13:30.403Z,75.82
2022-10-14T04:15:57.612Z,75.79
2022-10-14T04:18:34.819Z,75.65
2022-10-14T04:21:05.687Z,75.81
2022-10-14T04:23:33.090Z,75.60
2022-10-14T04:26:09.245Z,75.88
2022-10-14T04:28:37.999Z,75.79
2022-10-14T04:31:14.956Z,75.65
2022-10-14T04:33:50.618Z,75.99
2022-10-14T04:36:23.922Z,75.92
2022-10-14T04:38:50.595Z,75.83
2022-10-14T04:41:17.229Z,76.05
2022-10-14T04:43:47.694Z,75.51
2022-10-14T04:46:27.789Z,75.99
2022-10-14T04:48:54.655Z,75.86
2022-10-14T04:51:25.164Z,75.86
2022-10-14T04:54:10.705Z,75.95
2022-10-14T04:56:46.585Z,75.94
2022-10-14T04:59:14.145Z,75.95
2022-10-14T05:02:03.903Z,75.94
2022-10-14T05:04:39.596Z,75.69
2022-10-14T05:07:07.507Z,76.05
2022-10-14T05:09:34.370Z,75.98
2022-10-14T05:12:01.542Z,75.84
2022-10-14T05:14:38.432Z,76.08
2022-10-14T05:17:17.716Z,75.69
2022-10-14T05:19:44.434Z,76.12
2022-10-14T05:22:11.079Z,75.98
2022-10-14T05:24:41.922Z,75.89
2022-10-14T05:27:08.561Z,75.81
2022-10-14T05:29:35.198Z,76.00
2022-10-14T05:32:02.738Z,75.81
2022-10-14T05:34:37.756Z,75.71
2022-10-14T05:37:08.209Z,76.01
2022-10-14T05:39:42.340Z,75.80
2022-10-14T05:42:09.166Z,75.65
2022-10-14T05:44:36.617Z,75.46
2022-10-14T05:47:04.491Z,75.66
2022-10-14T05:49:31.637Z,75.43
2022-10-14T05:52:02.574Z,75.84
2022-10-14T05:54:30.745Z,75.74
2022-10-14T05:56:58.004Z,75.65
2022-10-14T05:59:25.593Z,75.84
2022-10-14T06:01:52.244Z,75.83
2022-10-14T06:04:20.886Z,75.56
2022-10-14T06:06:47.773Z,75.68
2022-10-14T06:09:15.669Z,75.63
2022-10-14T06:11:42.698Z,75.35
2022-10-14T06:14:09.557Z,75.74
2022-10-14T06:16:36.338Z,75.56
2022-10-14T06:19:05.808Z,75.77
2022-10-14T06:21:32.581Z,75.79
2022-10-14T06:23:59.194Z,75.88
2022-10-14T06:26:25.900Z,76.09
2022-10-14T06:28:52.569Z,75.90
2022-10-14T06:31:19.388Z,75.73
2022-10-14T06:33:46.088Z,76.03
2022-10-14T06:36:12.871Z,75.72
2022-10-14T06:38:40.561Z,75.80
2022-10-14T06:41:07.281Z,75.64
2022-10-14T06:43:35.228Z,75.84
2022-10-14T06:46:03.334Z,76.16
2022-10-14T06:48:30.197Z,75.92
2022-10-14T06:51:00.098Z,76.03
2022-10-14T06:53:28.270Z,76.15
2022-10-14T06:56:03.915Z,76.05
2022-10-14T06:58:31.416Z,75.88
2022-10-14T07:01:03.240Z,75.91
2022-10-14T07:03:29.932Z,75.83
2022-10-14T07:05:56.592Z,75.95
2022-10-14T07:08:23.223Z,76.59
2022-10-14T07:10:49.896Z,76.55
2022-10-14T07:13:16.538Z,76.46
2022-10-14T07:15:43.141Z,76.66
2022-10-14T07:18:09.795Z,76.55
2022-10-14T07:20:36.411Z,76.22
2022-10-14T07:23:03.050Z,76.23
2022-10-14T07:25:29.716Z,76.01
2022-10-14T07:27:56.582Z,75.76
2022-10-14T07:30:23.455Z,75.81
2022-10-14T07:32:50.169Z,75.62
2022-10-14T07:35:17.316Z,75.60
2022-10-14T07:37:43.981Z,75.47
2022-10-14T07:40:11.407Z,75.31
2022-10-14T07:42:38.096Z,75.16
2022-10-14T07:45:05.896Z,74.96
2022-10-14T07:47:33.711Z,74.70
2022-10-14T07:50:02.451Z,74.52
2022-10-14T07:52:29.256Z,74.23
2022-10-14T07:54:55.916Z,74.58
2022-10-14T07:57:24.027Z,74.65
2022-10-14T07:59:52.564Z,74.26
2022-10-14T08:02:19.364Z,74.67
2022-10-14T08:04:47.156Z,74.86
2022-10-14T08:07:16.595Z,75.21
2022-10-14T08:09:43.260Z,74.72
2022-10-14T08:12:10.308Z,74.92
2022-10-14T08:14:37.539Z,74.92
2022-10-14T08:17:04.390Z,74.20
2022-10-14T08:19:31.207Z,74.70
2022-10-14T08:21:57.842Z,74.38
2022-10-14T08:24:24.482Z,74.25
2022-10-14T08:26:56.474Z,74.03
2022-10-14T08:29:23.737Z,74.06
2022-10-14T08:31:52.368Z,73.85
2022-10-14T08:34:23.753Z,73.68
2022-10-14T08:36:51.568Z,74.13
2022-10-14T08:39:19.308Z,74.22
2022-10-14T08:42:12.545Z,74.19
2022-10-14T08:44:44.535Z,74.13
2022-10-14T08:47:16.426Z,73.78
2022-10-14T08:49:52.241Z,73.82
2022-10-14T08:52:25.407Z,73.28
2022-10-14T08:55:00.707Z,73.61
2022-10-14T08:57:34.581Z,73.83
2022-10-14T09:00:02.000Z,73.85
2022-10-14T09:02:47.909Z,73.66
2022-10-14T09:05:22.124Z,73.81
2022-10-14T09:10:36.223Z,74.01
2022-10-14T09:13:36.736Z,74.26
2022-10-14T09:16:41.358Z,73.85
2022-10-14T09:19:28.669Z,74.22
2022-10-14T09:21:56.031Z,74.53
2022-10-14T09:24:32.364Z,74.51
2022-10-14T09:27:23.304Z,74.73
2022-10-14T09:29:54.567Z,74.65
2022-10-14T09:32:32.757Z,74.69
2022-10-14T09:35:00.009Z,74.73
2022-10-14T09:37:37.065Z,74.50
2022-10-14T09:40:09.934Z,74.44
2022-10-14T09:43:02.995Z,74.52
2022-10-14T09:45:45.852Z,74.57
2022-10-14T09:48:18.671Z,75.12
2022-10-14T09:50:55.620Z,75.45
2022-10-14T09:53:30.261Z,75.19
2022-10-14T09:56:03.058Z,75.04
2022-10-14T09:58:43.719Z,74.96
2022-10-14T10:01:42.890Z,74.67
2022-10-14T10:04:31.587Z,74.00
2022-10-14T10:07:00.355Z,74.13
2022-10-14T10:09:27.813Z,74.10
2022-10-14T10:11:55.179Z,74.00
2022-10-14T10:14:33.455Z,73.94
2022-10-14T10:17:12.751Z,74.22
2022-10-14T10:19:41.452Z,73.91
2022-10-14T10:22:37.013Z,73.81
2022-10-14T10:25:03.569Z,73.63
2022-10-14T10:27:36.465Z,73.59
2022-10-14T10:30:15.439Z,73.46
2022-10-14T10:32:54.811Z,73.94
2022-10-14T10:35:32.799Z,73.98
2022-10-14T10:38:15.299Z,73.99
2022-10-14T10:41:03.312Z,74.01
2022-10-14T10:43:57.443Z,74.15
2022-10-14T10:46:33.880Z,74.55
2022-10-14T10:49:03.721Z,74.24
2022-10-14T10:52:02.792Z,74.42
2022-10-14T10:54:53.872Z,74.52
2022-10-14T10:57:32.800Z,74.43
2022-10-14T11:00:06.135Z,74.73
2022-10-14T11:02:38.841Z,74.80
2022-10-14T11:05:25.854Z,74.65
2022-10-14T11:08:22.378Z,74.58
2022-10-14T11:11:17.511Z,74.45
2022-10-14T11:13:56.891Z,74.64
2022-10-14T11:16:30.975Z,74.88
2022-10-14T11:19:12.365Z,74.87
2022-10-14T11:22:12.141Z,75.07
2022-10-14T11:24:58.636Z,75.32
2022-10-14T11:27:41.311Z,75.70
2022-10-14T11:30:18.707Z,75.66
2022-10-14T11:33:15.743Z,76.00
2022-10-14T11:36:09.644Z,75.68
2022-10-14T11:38:48.211Z,75.76
2022-10-14T11:41:36.479Z,76.08
2022-10-14T11:44:15.162Z,76.31
2022-10-14T11:46:46.487Z,77.61
2022-10-14T11:49:25.254Z,77.62
2022-10-14T11:51:55.496Z,78.49
2022-10-14T11:54:36.769Z,77.89
2022-10-14T11:57:27.560Z,78.10
2022-10-14T12:00:01.091Z,78.68
2022-10-14T12:02:33.895Z,78.08
2022-10-14T12:05:19.901Z,78.42
2022-10-14T12:08:09.296Z,77.83
2022-10-14T12:10:43.314Z,77.42
2022-10-14T12:13:17.035Z,77.35
2022-10-14T12:15:49.182Z,77.13
2022-10-14T12:18:19.555Z,76.53
2022-10-14T12:21:29.121Z,76.37
2022-10-14T12:24:19.673Z,77.15
2022-10-14T12:26:54.461Z,76.94
2022-10-14T12:29:37.524Z,76.62
2022-10-14T12:32:04.064Z,76.56
2022-10-14T12:34:37.847Z,76.71
2022-10-14T12:37:27.273Z,76.84
2022-10-14T12:40:03.393Z,76.79
2022-10-14T12:42:34.886Z,77.11
2022-10-14T12:45:15.425Z,76.63
2022-10-14T12:47:42.443Z,76.67
2022-10-14T12:50:15.942Z,76.35
2022-10-14T12:52:48.091Z,75.92
2022-10-14T12:55:20.987Z,75.66
2022-10-14T12:57:56.303Z,75.95
2022-10-14T13:00:22.968Z,75.26
2022-10-14T13:02:56.516Z,75.62
2022-10-14T13:05:29.546Z,75.42
2022-10-14T13:08:20.651Z,75.04
2022-10-14T13:10:49.705Z,75.17
2022-10-14T13:13:38.668Z,74.89
2022-10-14T13:16:29.739Z,75.45
2022-10-14T13:19:00.282Z,74.78
2022-10-14T13:21:31.821Z,74.74
2022-10-14T13:24:05.829Z,73.97
2022-10-14T13:26:55.166Z,73.63
2022-10-14T13:29:29.551Z,73.90
2022-10-14T13:32:21.319Z,73.22
2022-10-14T13:35:24.316Z,73.72
2022-10-14T13:38:18.618Z,73.77
2022-10-14T13:40:52.082Z,74.05
2022-10-14T13:43:34.636Z,73.46
2022-10-14T13:46:04.522Z,72.83
2022-10-14T13:48:35.874Z,73.13
2022-10-14T13:51:24.728Z,72.80
2022-10-14T13:54:30.350Z,73.12
2022-10-14T14:02:44.752Z,73.12
2022-10-14T14:05:20.467Z,73.10
2022-10-14T14:10:39.325Z,71.91
2022-10-14T14:13:18.808Z,72.40
2022-10-14T14:15:50.997Z,71.69
2022-10-14T14:18:56.174Z,72.00
2022-10-14T14:21:30.972Z,72.20
2022-10-14T14:23:59.816Z,71.49
2022-10-14T14:26:35.684Z,71.82
2022-10-14T14:29:16.080Z,71.70
2022-10-14T14:34:30.826Z,71.94
2022-10-14T14:37:10.649Z,71.53
2022-10-14T14:39:59.828Z,72.00
2022-10-14T14:42:30.643Z,72.00
2022-10-14T14:45:03.047Z,71.18
2022-10-14T14:47:31.556Z,70.98
2022-10-14T14:50:18.272Z,71.64
2022-10-14T14:52:48.132Z,71.74
2022-10-14T14:55:40.342Z,72.07
2022-10-14T14:58:18.491Z,71.88
2022-10-14T15:00:46.387Z,71.67
2022-10-14T15:03:13.577Z,72.03
2022-10-14T15:05:40.268Z,72.16
2022-10-14T15:08:20.935Z,72.04
2022-10-14T15:10:49.196Z,72.42
2022-10-14T15:13:38.971Z,72.66
2022-10-14T15:16:06.813Z,73.05
2022-10-14T15:18:36.092Z,73.67
2022-10-14T15:21:12.284Z,73.62
2022-10-14T15:23:53.239Z,72.90
2022-10-14T15:26:24.116Z,72.59
2022-10-14T15:29:13.692Z,73.72
2022-10-14T15:31:43.208Z,74.25
2022-10-14T15:34:19.296Z,74.38
2022-10-14T15:36:49.603Z,74.26
2022-10-14T15:39:16.280Z,74.35
2022-10-14T15:41:43.621Z,74.32
2022-10-14T15:44:10.244Z,74.78
2022-10-14T15:46:57.227Z,74.80
2022-10-14T15:49:31.493Z,74.92
2022-10-14T15:51:58.212Z,75.20
2022-10-14T15:54:27.460Z,75.58
2022-10-14T15:59:24.449Z,77.31
2022-10-14T16:01:52.160Z,77.26
2022-10-14T16:04:24.531Z,77.06
2022-10-14T16:06:56.043Z,77.20
2022-10-14T16:09:23.569Z,77.04
2022-10-14T16:11:57.000Z,77.09
2022-10-14T16:14:27.611Z,76.99
2022-10-14T16:16:54.914Z,77.02
2022-10-14T16:19:21.828Z,76.92
2022-10-14T16:21:50.195Z,76.83
2022-10-14T16:24:20.066Z,76.85
2022-10-14T16:26:48.924Z,76.56
2022-10-14T16:29:17.998Z,76.70
2022-10-14T16:31:49.932Z,76.78
2022-10-14T16:34:22.276Z,76.89
2022-10-14T16:36:50.870Z,76.83
2022-10-14T16:39:19.530Z,76.65
2022-10-14T16:41:46.610Z,76.70
2022-10-14T16:44:24.644Z,76.77
2022-10-14T16:47:15.173Z,76.38
2022-10-14T16:49:44.516Z,76.17
2022-10-14T16:52:11.496Z,76.30
2022-10-14T16:54:38.204Z,76.39
2022-10-14T16:57:05.771Z,76.23
2022-10-14T16:59:32.996Z,76.16
2022-10-14T17:02:00.554Z,76.19
2022-10-14T17:04:27.326Z,76.61
2022-10-14T17:07:07.118Z,76.87
2022-10-14T17:09:36.971Z,76.82
2022-10-14T17:12:08.119Z,76.53
2022-10-14T17:14:38.018Z,76.63
2022-10-14T17:17:04.899Z,76.67
2022-10-14T17:19:31.647Z,76.61
2022-10-14T17:21:59.569Z,76.63
2022-10-14T17:24:26.399Z,76.51
2022-10-14T17:26:53.254Z,76.59
2022-10-14T17:29:20.444Z,76.46
2022-10-14T17:31:50.175Z,76.45
2022-10-14T17:34:16.857Z,76.30
2022-10-14T17:36:43.544Z,76.60
2022-10-14T17:39:22.814Z,76.44
2022-10-14T17:41:55.965Z,76.07
2022-10-14T17:44:22.584Z,76.41
2022-10-14T17:46:49.239Z,76.69
2022-10-14T17:49:16.029Z,77.24
2022-10-14T17:51:42.676Z,77.59
2022-10-14T17:54:11.920Z,77.33
2022-10-14T17:56:39.986Z,77.91
2022-10-14T17:59:10.343Z,78.05
2022-10-14T18:01:57.521Z,77.89
2022-10-14T18:04:23.685Z,77.43
2022-10-14T18:06:50.331Z,77.70
2022-10-14T18:09:17.014Z,77.96
2022-10-14T18:14:31.904Z,77.73
2022-10-14T18:16:59.262Z,77.90
2022-10-14T18:19:26.247Z,78.05
2022-10-14T18:21:52.914Z,78.40
2022-10-14T18:24:20.111Z,78.00
2022-10-14T18:26:49.863Z,77.93
2022-10-14T18:29:16.826Z,78.16
2022-10-14T18:31:43.730Z,78.13
2022-10-14T18:34:11.681Z,78.10
2022-10-14T18:36:38.718Z,77.86
2022-10-14T18:39:07.689Z,78.23
2022-10-14T18:41:36.898Z,78.45
2022-10-14T18:44:04.611Z,78.47
2022-10-14T18:46:36.681Z,78.66
2022-10-14T18:49:05.341Z,78.58
2022-10-14T18:51:35.031Z,78.55
2022-10-14T18:54:12.827Z,78.53
2022-10-14T18:56:39.710Z,78.74
2022-10-14T18:59:12.751Z,78.81
2022-10-14T19:01:41.006Z,78.84
2022-10-14T19:04:09.155Z,78.90
2022-10-14T19:06:36.287Z,78.75
2022-10-14T19:09:03.823Z,78.96
2022-10-14T19:11:32.749Z,78.98
2022-10-14T19:14:03.590Z,79.08
2022-10-14T19:16:32.680Z,79.28
2022-10-14T19:19:01.887Z,79.09
2022-10-14T19:21:32.113Z,79.12
2022-10-14T19:24:00.591Z,79.46
2022-10-14T19:26:32.762Z,79.29
2022-10-14T19:29:01.186Z,79.16
2022-10-14T19:31:31.084Z,79.51
2022-10-14T19:34:00.867Z,79.47
2022-10-14T19:36:28.224Z,79.47
2022-10-14T19:38:59.412Z,79.79
2022-10-14T19:41:31.427Z,79.97
2022-10-14T19:43:59.246Z,79.90
2022-10-14T19:46:27.696Z,79.94
2022-10-14T19:48:59.410Z,79.91
2022-10-14T19:51:27.129Z,79.84
2022-10-14T19:53:57.486Z,80.14
2022-10-14T19:56:25.432Z,80.17
2022-10-14T19:58:53.838Z,80.02
2022-10-14T20:01:25.851Z,80.10
2022-10-14T20:03:53.904Z,80.21
2022-10-14T20:06:21.860Z,80.22
2022-10-14T20:08:49.063Z,80.17
2022-10-14T20:11:18.024Z,79.91
2022-10-14T20:13:45.335Z,79.83
2022-10-14T20:16:12.664Z,80.00
2022-10-14T20:18:39.525Z,80.05
2022-10-14T20:21:07.845Z,80.02
2022-10-14T20:23:36.308Z,79.91
2022-10-14T20:26:05.268Z,80.29
2022-10-14T20:28:34.157Z,79.99
2022-10-14T20:31:00.874Z,80.15
2022-10-14T20:33:31.414Z,80.34
2022-10-14T20:36:03.751Z,80.40
2022-10-14T20:38:30.988Z,80.54
2022-10-14T20:41:04.900Z,80.39
2022-10-14T20:43:31.683Z,80.46
2022-10-14T20:45:58.394Z,80.57
2022-10-14T20:48:25.336Z,80.40
2022-10-14T20:50:51.948Z,80.56
2022-10-14T20:53:18.637Z,80.21
2022-10-14T20:55:45.311Z,80.47
2022-10-14T20:58:11.947Z,80.10
2022-10-14T21:00:38.699Z,79.94
2022-10-14T21:03:05.395Z,80.04
2022-10-14T21:05:35.291Z,80.43
2022-10-14T21:08:01.915Z,80.48
2022-10-14T21:10:28.518Z,80.34
2022-10-14T21:12:55.418Z,80.04
2022-10-14T21:15:22.067Z,79.93
2022-10-14T21:17:49.817Z,79.96
2022-10-14T21:20:16.825Z,80.65
2022-10-14T21:22:43.549Z,81.31
2022-10-14T21:25:10.333Z,80.43
2022-10-14T21:27:36.975Z,80.68
2022-10-14T21:30:04.038Z,80.72
2022-10-14T21:32:30.681Z,80.88
2022-10-14T21:34:58.453Z,80.43
2022-10-14T21:37:25.163Z,80.69
2022-10-14T21:39:51.821Z,80.50
2022-10-14T21:42:18.563Z,80.34
2022-10-14T21:44:45.247Z,80.52
2022-10-14T21:47:11.897Z,80.45
2022-10-14T21:49:38.608Z,80.47
2022-10-14T21:52:05.298Z,80.83
2022-10-14T21:54:31.939Z,80.45
2022-10-14T21:56:58.548Z,81.05
2022-10-14T21:59:25.218Z,81.38
2022-10-14T22:01:51.833Z,81.22
2022-10-14T22:04:18.605Z,81.08
2022-10-14T22:06:45.278Z,81.10
2022-10-14T22:09:11.888Z,80.83
2022-10-14T22:11:40.503Z,80.88
2022-10-14T22:14:12.181Z,80.67
2022-10-14T22:16:38.997Z,80.79
2022-10-14T22:19:07.209Z,80.59
2022-10-14T22:21:36.543Z,80.76
2022-10-14T22:24:05.092Z,80.48
2022-10-14T22:26:32.416Z,80.01
2022-10-14T22:29:05.628Z,80.39
2022-10-14T22:31:33.851Z,80.33
2022-10-14T22:34:05.572Z,80.26
2022-10-14T22:36:33.943Z,80.54
2022-10-14T22:39:02.569Z,80.38
2022-10-14T22:41:34.800Z,80.31
2022-10-14T22:44:03.415Z,80.36
2022-10-14T22:46:32.304Z,80.29
2022-10-14T22:49:00.759Z,80.16
2022-10-14T22:51:40.303Z,80.18
2022-10-14T22:54:07.375Z,80.15
2022-10-14T22:56:34.154Z,80.29
2022-10-14T22:59:04.295Z,80.36
2022-10-14T23:01:31.524Z,79.87
2022-10-14T23:03:58.674Z,79.76
2022-10-14T23:06:26.280Z,79.77
2022-10-14T23:08:54.207Z,79.90
2022-10-14T23:11:23.068Z,80.14
2022-10-14T23:13:50.039Z,80.23
2022-10-14T23:16:22.172Z,80.88
2022-10-14T23:18:49.608Z,80.06
2022-10-14T23:21:24.351Z,80.64
2022-10-14T23:23:53.155Z,80.14
2022-10-14T23:26:22.674Z,80.10
2022-10-14T23:28:51.365Z,81.37
2022-10-14T23:31:20.375Z,80.83
2022-10-14T23:33:48.135Z,81.34
2022-10-14T23:36:16.171Z,82.09
2022-10-14T23:38:43.895Z,81.90
2022-10-14T23:41:12.118Z,81.29
2022-10-14T23:43:39.575Z,81.54
2022-10-14T23:46:07.027Z,81.94
2022-10-14T23:48:34.676Z,81.92
2022-10-14T23:51:01.640Z,81.94
2022-10-14T23:53:28.392Z,82.41
2022-10-14T23:55:56.130Z,82.26
2022-10-14T23:58:23.698Z,82.19
